Catàleg de serveis del Meteocat
Campanya meteocatpedra

Dades de l'estació automàtica Camarasa

?
?
Resum diari 21:30 TU
Dades diàries de l'estació meteorològica
Temperatura mitjana 23.1 °C
Temperatura màxima 29.8 °C 15:35 TU
Temperatura mínima 17.3 °C 5:04 TU
Humitat relativa mitjana 58%
Precipitació acumulada 0.0 mm
Ratxa màxima del vent (2 m) 22.3 km/h - 288º 16:47 TU
Irradiació solar global 29.2 MJ/m2

El tram horari està expressat en Temps Universal (TU). Cal sumar una hora en horari d'hivern i dues en horari d'estiu per passar a l'hora oficial.

Camarasa

Metadades estació meteorol´gica
Municipi Camarasa
Comarca Noguera
Altitud 668 m
Data alta 07.03.2006
Estat actual Operativa
Dades de període
Període
TU
TM
°C
TX
°C
TN
°C
HRM
%
PPT
mm
VVM (2 m)
km/h
DVM (2 m)
graus
VVX (2 m)
km/h
RS
W/m2
00:00 - 00:30 17.9 18.3 17.6 75 0.0 1.8 68 3.6 0
00:30 - 01:00 18.3 18.8 18.0 73 0.0 1.1 291 3.6 0
01:00 - 01:30 18.4 18.6 18.2 75 0.0 1.4 254 2.9 0
01:30 - 02:00 18.5 18.7 18.1 74 0.0 1.1 253 2.5 0
02:00 - 02:30 18.6 19.1 18.1 73 0.0 0.7 225 3.2 0
02:30 - 03:00 18.3 18.5 18.1 75 0.0 0.0 294 1.1 0
03:00 - 03:30 18.4 18.7 17.8 75 0.0 1.4 212 4.0 0
03:30 - 04:00 17.9 18.1 17.8 77 0.0 1.8 237 2.9 0
04:00 - 04:30 17.8 17.9 17.5 77 0.0 1.1 254 2.5 0
04:30 - 05:00 17.7 18.0 17.5 81 0.0 1.1 170 4.0 6
05:00 - 05:30 17.5 17.7 17.3 81 0.0 2.9 172 9.0 47
05:30 - 06:00 17.8 18.2 17.6 81 0.0 1.4 186 5.8 73
06:00 - 06:30 17.9 18.2 17.7 80 0.0 1.4 165 4.7 117
06:30 - 07:00 19.0 19.9 17.9 78 0.0 1.1 217 6.5 266
07:00 - 07:30 19.4 19.6 19.2 78 0.0 5.8 157 11.5 418
07:30 - 08:00 19.6 20.4 19.2 78 0.0 4.7 167 11.9 469
08:00 - 08:30 20.8 21.4 20.4 73 0.0 4.3 172 11.5 598
08:30 - 09:00 21.1 21.6 20.8 71 0.0 5.8 158 12.6 687
09:00 - 09:30 21.9 22.4 21.3 69 0.0 6.5 157 14.8 759
09:30 - 10:00 22.8 23.8 22.3 65 0.0 5.0 170 13.0 822
10:00 - 10:30 23.7 24.4 23.0 62 0.0 5.8 176 15.8 868
10:30 - 11:00 24.5 25.3 23.5 59 0.0 5.0 168 12.6 912
11:00 - 11:30 25.1 25.9 24.6 56 0.0 7.9 162 17.3 955
11:30 - 12:00 25.7 26.3 25.3 54 0.0 7.2 201 19.4 957
12:00 - 12:30 26.3 26.5 25.9 53 0.0 7.2 189 16.6 971
12:30 - 13:00 27.1 27.7 26.4 51 0.0 5.8 174 14.4 963
13:00 - 13:30 27.6 28.1 27.0 49 0.0 7.2 208 20.9 934
13:30 - 14:00 27.8 28.1 27.4 49 0.0 7.9 189 19.1 889
14:00 - 14:30 28.1 28.6 27.7 47 0.0 7.6 193 18.7 818
14:30 - 15:00 28.5 28.9 27.8 44 0.0 6.8 192 18.0 724
15:00 - 15:30 28.5 29.3 27.7 42 0.0 5.4 230 15.5 600
15:30 - 16:00 29.2 29.8 28.6 35 0.0 7.9 260 20.2 627
16:00 - 16:30 29.2 29.6 28.7 32 0.0 8.3 262 21.6 530
16:30 - 17:00 29.1 29.4 28.8 30 0.0 8.3 271 22.3 433
17:00 - 17:30 28.9 29.3 28.6 29 0.0 8.3 270 19.4 337
17:30 - 18:00 28.6 28.8 28.5 25 0.0 8.6 280 18.4 240
18:00 - 18:30 28.0 28.3 27.7 27 0.0 6.1 251 15.5 144
18:30 - 19:00 27.0 27.6 26.4 28 0.0 5.0 234 10.8 62
19:00 - 19:30 25.8 26.3 24.6 29 0.0 2.9 220 10.1 11
19:30 - 20:00 24.8 25.2 24.3 33 0.0 2.2 187 5.8 0
20:00 - 20:30 24.3 24.8 23.9 36 0.0 1.1 111 5.8 0
20:30 - 21:00 23.5 24.2 22.8 47 0.0 4.3 161 12.6 0
21:00 - 21:30 22.3 22.8 21.7 61 0.0 7.6 136 15.8 0
21:30 - 22:00 21.4 21.7 20.9 65 0.0 7.2 102 18.0 0

Les dades en taronja només han passat un control de qualitat automàtic. Resta pendent la seva validació definitiva.